Time;durP1;ratioP1;P1;durP2;ratioP2;P2;SDS_P1;SDS_P2;PMS_P1;PMS_P2;Temp;Humidity;BMP_temperature;BMP_pressure;BME280_temperature;BME280_humidity;BME280_pressure;Samples;Min_cycle;Max_cycle;Signal;HPM_P1;HPM_P2
2023/01/31 00:00:03;;;;;;;49.70;31.38;;;;;;;4.24;68.38;101580.56;4859861;29;20051;-81
2023/01/31 00:02:30;;;;;;;53.40;30.65;;;;;;;4.16;68.44;101594.06;4864014;29;20407;-80
2023/01/31 00:05:02;;;;;;;52.33;30.30;;;;;;;3.97;68.70;101562.53;4890427;28;20361;-77
2023/01/31 00:07:41;;;;;;;53.67;32.00;;;;;;;4.21;69.00;101617.50;4853367;29;20115;-79
2023/01/31 00:10:31;;;;;;;53.03;30.52;;;;;;;4.30;68.12;101614.47;4884751;28;20486;-81
2023/01/31 00:13:06;;;;;;;53.97;30.88;;;;;;;4.17;68.73;101594.91;4850403;29;20195;-80
2023/01/31 00:15:41;;;;;;;52.50;31.30;;;;;;;3.82;68.58;101552.72;4853710;29;20292;-81
2023/01/31 00:18:19;;;;;;;50.42;30.40;;;;;;;4.12;68.33;101620.56;4873801;28;20101;-79
2023/01/31 00:20:52;;;;;;;59.25;33.28;;;;;;;3.72;68.74;101583.81;4860811;29;20684;-79
2023/01/31 00:23:29;;;;;;;57.17;32.42;;;;;;;4.00;68.92;101630.69;4890659;28;20440;-81
2023/01/31 00:26:22;;;;;;;57.58;31.92;;;;;;;3.82;69.37;101615.75;4887237;28;20065;-79
2023/01/31 00:28:58;;;;;;;51.53;30.35;;;;;;;3.15;69.01;101498.81;4851619;29;20141;-80
2023/01/31 00:31:32;;;;;;;57.13;32.15;;;;;;;3.96;69.26;101633.53;4858041;29;20423;-80
2023/01/31 00:34:06;;;;;;;67.30;33.03;;;;;;;3.76;69.37;101609.03;4843164;29;20052;-79
2023/01/31 00:36:43;;;;;;;62.63;34.47;;;;;;;3.84;69.82;101624.44;4853121;29;20526;-78
2023/01/31 00:39:18;;;;;;;51.95;31.73;;;;;;;3.96;69.62;101641.44;4843803;29;20382;-80
2023/01/31 00:41:54;;;;;;;53.03;32.50;;;;;;;3.92;69.36;101648.56;4846510;29;20133;-79
2023/01/31 00:44:28;;;;;;;55.40;32.78;;;;;;;3.87;69.99;101639.19;4837393;29;20254;-79
2023/01/31 00:47:10;;;;;;;56.20;33.53;;;;;;;3.36;69.76;101560.00;4854204;29;20292;-80
2023/01/31 00:49:50;;;;;;;58.38;33.95;;;;;;;3.92;69.88;101645.09;4831184;29;20491;-78
2023/01/31 00:52:32;;;;;;;64.10;33.83;;;;;;;3.83;69.76;101654.22;4849357;29;20082;-80
2023/01/31 00:55:08;;;;;;;58.92;33.00;;;;;;;3.85;70.06;101668.16;4856596;29;20054;-77
2023/01/31 00:57:40;;;;;;;62.17;35.95;;;;;;;3.85;70.09;101640.09;4857482;29;20220;-78
2023/01/31 01:00:19;;;;;;;64.93;35.92;;;;;;;4.00;70.44;101656.97;4850735;29;20135;-78
2023/01/31 01:02:46;;;;;;;65.80;37.53;;;;;;;3.95;70.10;101658.94;4879685;28;20059;-79
2023/01/31 01:05:20;;;;;;;56.00;36.38;;;;;;;3.79;70.28;101652.69;4871570;29;20449;-79
2023/01/31 01:07:58;;;;;;;63.58;36.03;;;;;;;3.84;70.67;101663.84;4852644;29;20051;-80
2023/01/31 01:10:29;;;;;;;63.45;37.15;;;;;;;3.81;70.51;101653.44;4865013;29;20240;-80
2023/01/31 01:13:06;;;;;;;57.70;36.50;;;;;;;3.77;70.58;101649.25;4869664;29;20059;-79
2023/01/31 01:15:48;;;;;;;60.03;36.47;;;;;;;3.80;71.03;101659.63;4845565;29;20156;-80
2023/01/31 01:18:20;;;;;;;65.07;38.72;;;;;;;3.75;70.47;101651.09;4847532;29;20402;-80
2023/01/31 01:21:04;;;;;;;61.55;35.42;;;;;;;3.62;70.98;101637.66;4847609;29;20345;-79
2023/01/31 01:23:37;;;;;;;60.92;36.10;;;;;;;3.94;70.80;101675.63;4829912;29;20388;-81
2023/01/31 01:26:15;;;;;;;59.83;38.45;;;;;;;3.94;70.35;101644.13;4881746;28;20124;-79
2023/01/31 01:28:49;;;;;;;64.55;37.05;;;;;;;3.25;70.14;101536.84;4841731;29;20502;-79
2023/01/31 01:31:18;;;;;;;56.58;36.35;;;;;;;4.01;71.03;101677.06;4857811;29;20679;-80
2023/01/31 01:33:47;;;;;;;62.00;38.63;;;;;;;3.82;70.55;101666.53;4826134;29;20709;-80
2023/01/31 01:36:22;;;;;;;58.78;36.60;;;;;;;3.68;71.01;101665.41;4819664;29;20395;-80
2023/01/31 01:39:00;;;;;;;55.93;33.70;;;;;;;3.79;71.31;101689.44;4840792;29;20052;-80
2023/01/31 01:41:43;;;;;;;63.95;37.45;;;;;;;3.78;70.86;101685.09;4815116;29;20107;-79
2023/01/31 01:44:47;;;;;;;60.58;36.70;;;;;;;3.79;70.89;101686.81;4837971;29;20260;-78
2023/01/31 01:48:08;;;;;;;62.60;36.38;;;;;;;3.79;71.65;101684.19;4850705;29;20236;-80
2023/01/31 01:50:55;;;;;;;61.17;34.90;;;;;;;3.73;72.07;101673.94;4838260;29;20737;-79
2023/01/31 01:53:36;;;;;;;66.07;36.97;;;;;;;3.53;71.15;101662.53;4860668;29;20197;-80
2023/01/31 01:56:19;;;;;;;59.80;37.70;;;;;;;3.39;71.43;101638.63;4852360;29;20270;-80
2023/01/31 01:59:03;;;;;;;61.25;38.13;;;;;;;4.00;70.24;101695.53;4860000;29;20051;-78
2023/01/31 02:01:40;;;;;;;69.53;39.03;;;;;;;3.85;70.51;101684.75;4892944;29;20063;-80
2023/01/31 02:04:14;;;;;;;65.55;37.35;;;;;;;3.88;71.11;101702.16;4871487;29;20381;-75
2023/01/31 02:06:51;;;;;;;59.35;37.38;;;;;;;4.01;70.67;101705.97;4855808;29;20060;-81
2023/01/31 02:09:48;;;;;;;62.13;37.95;;;;;;;3.89;71.18;101706.53;4838587;29;20139;-79
2023/01/31 02:12:32;;;;;;;64.00;36.88;;;;;;;3.71;71.74;101702.03;4850550;29;20433;-78
2023/01/31 02:15:05;;;;;;;56.50;34.85;;;;;;;3.80;71.61;101720.88;4833059;29;20562;-81
2023/01/31 02:17:40;;;;;;;64.40;37.30;;;;;;;3.64;71.55;101707.56;4878865;29;20052;-79
2023/01/31 02:21:01;;;;;;;66.15;37.45;;;;;;;3.20;71.96;101649.91;4880597;29;20051;-78
2023/01/31 02:23:48;;;;;;;55.25;35.15;;;;;;;2.79;72.03;101596.47;4882409;29;20052;-79
2023/01/31 02:26:52;;;;;;;61.58;37.78;;;;;;;3.49;71.81;101713.44;4847929;29;20186;-79
2023/01/31 02:30:07;;;;;;;58.83;36.15;;;;;;;3.50;72.17;101712.53;4857198;29;20056;-80
2023/01/31 02:33:07;;;;;;;62.17;35.13;;;;;;;3.48;72.07;101721.41;4867570;29;20633;-76
2023/01/31 02:36:14;;;;;;;61.60;35.63;;;;;;;3.33;72.35;101694.03;4878807;29;20648;-80
2023/01/31 02:39:01;;;;;;;58.15;34.55;;;;;;;3.28;71.76;101682.84;4870168;29;20047;-80
2023/01/31 02:42:13;;;;;;;60.03;34.80;;;;;;;3.50;72.35;101715.16;4874719;29;20407;-78
2023/01/31 02:45:15;;;;;;;56.17;35.17;;;;;;;3.53;71.62;101720.28;4874509;29;20055;-80
2023/01/31 02:48:10;;;;;;;58.83;35.55;;;;;;;3.56;71.91;101703.56;4879695;29;20056;-81
2023/01/31 02:51:20;;;;;;;66.03;37.40;;;;;;;3.59;71.09;101722.66;4883215;29;20522;-78
2023/01/31 02:54:02;;;;;;;63.78;36.58;;;;;;;3.48;71.76;101714.38;4817734;29;20060;-80
2023/01/31 02:56:38;;;;;;;59.45;36.17;;;;;;;3.28;71.45;101656.63;4877185;29;20145;-81
2023/01/31 02:59:34;;;;;;;64.85;37.38;;;;;;;3.63;71.93;101718.97;4867143;29;20082;-80
2023/01/31 03:02:13;;;;;;;61.17;37.10;;;;;;;3.35;72.13;101682.53;4886286;29;20138;-80
2023/01/31 03:04:41;;;;;;;62.10;35.40;;;;;;;3.49;72.14;101713.44;4913516;28;20055;-78
2023/01/31 03:07:30;;;;;;;61.78;37.13;;;;;;;3.58;72.71;101718.31;4880816;29;20082;-79
2023/01/31 03:10:08;;;;;;;60.28;36.72;;;;;;;3.61;72.32;101712.94;4901556;29;20082;-79
2023/01/31 03:13:13;;;;;;;54.47;34.33;;;;;;;3.49;71.89;101716.06;4890261;29;20051;-80
2023/01/31 03:19:27;;;;;;;65.95;39.80;;;;;;;3.47;72.86;101720.56;4907693;28;20070;-80
2023/01/31 03:21:59;;;;;;;67.80;39.35;;;;;;;3.44;72.29;101702.28;4861101;29;20079;-77
2023/01/31 03:24:34;;;;;;;62.55;39.75;;;;;;;3.51;72.86;101723.91;4914984;28;20564;-77
2023/01/31 03:27:01;;;;;;;66.00;40.10;;;;;;;3.28;72.32;101693.34;4898461;28;20505;-79
2023/01/31 03:29:37;;;;;;;66.78;40.72;;;;;;;3.18;72.61;101680.59;4923720;28;20106;-79
2023/01/31 03:32:19;;;;;;;66.32;40.05;;;;;;;3.40;72.94;101726.97;4878341;29;20338;-79
2023/01/31 03:34:46;;;;;;;60.80;38.13;;;;;;;3.25;73.06;101710.06;4916152;29;20057;-79
2023/01/31 03:37:49;;;;;;;72.80;42.97;;;;;;;3.32;72.89;101729.88;4912936;28;20230;-79
2023/01/31 03:40:33;;;;;;;69.22;41.67;;;;;;;3.10;72.80;101697.56;4908819;29;20500;-80
2023/01/31 03:43:30;;;;;;;70.05;39.75;;;;;;;3.23;72.86;101727.66;4928620;28;20047;-80
2023/01/31 03:46:23;;;;;;;73.88;41.63;;;;;;;3.21;73.32;101729.47;4874136;29;20054;-77
2023/01/31 03:49:07;;;;;;;70.03;42.25;;;;;;;2.77;73.12;101680.47;4871435;29;20454;-80
2023/01/31 03:51:38;;;;;;;73.07;41.20;;;;;;;3.05;73.41;101718.72;4872402;29;20048;-79
2023/01/31 03:54:11;;;;;;;75.53;45.20;;;;;;;3.41;73.80;101749.66;4880608;29;20253;-80
2023/01/31 03:56:58;;;;;;;74.80;44.00;;;;;;;3.11;73.06;101710.63;4869041;29;20494;-79
2023/01/31 03:59:59;;;;;;;68.85;41.22;;;;;;;3.26;73.51;101742.44;4874815;28;20051;-79
2023/01/31 04:02:52;;;;;;;70.60;43.85;;;;;;;3.30;73.73;101744.00;4894866;29;20790;-79
2023/01/31 04:05:30;;;;;;;78.93;46.40;;;;;;;2.31;73.14;101576.56;4914183;29;20387;-80
2023/01/31 04:07:59;;;;;;;67.28;44.08;;;;;;;3.28;73.37;101737.97;4910729;29;20541;-81
2023/01/31 04:10:26;;;;;;;76.05;44.25;;;;;;;2.95;73.35;101688.53;4913753;29;20055;-79
2023/01/31 04:12:55;;;;;;;75.65;44.10;;;;;;;3.20;73.33;101731.25;4925190;29;20513;-79
2023/01/31 04:15:27;;;;;;;80.65;44.42;;;;;;;2.93;73.49;101672.84;4903829;29;20478;-78
2023/01/31 04:18:06;;;;;;;79.32;46.35;;;;;;;3.32;73.46;101742.16;4899639;29;20044;-80
2023/01/31 04:20:36;;;;;;;83.75;46.80;;;;;;;3.26;73.09;101737.19;4908975;29;20294;-80
2023/01/31 04:23:08;;;;;;;74.63;45.15;;;;;;;3.19;73.21;101732.16;4923950;28;20051;-80
2023/01/31 04:25:38;;;;;;;78.40;44.65;;;;;;;2.97;73.45;101700.69;4908876;29;20389;-79
2023/01/31 04:28:04;;;;;;;72.85;42.78;;;;;;;2.97;73.68;101699.81;4906278;29;20052;-80
2023/01/31 04:30:38;;;;;;;71.90;43.42;;;;;;;2.95;73.57;101712.16;4913013;28;20126;-81
2023/01/31 04:33:05;;;;;;;68.85;44.03;;;;;;;3.17;73.68;101744.47;4914147;29;20059;-80
2023/01/31 04:35:38;;;;;;;71.07;43.33;;;;;;;3.17;73.62;101739.22;4919624;28;20063;-79
2023/01/31 04:38:10;;;;;;;70.53;41.03;;;;;;;3.07;73.83;101729.19;4912020;28;20054;-80
2023/01/31 04:40:39;;;;;;;65.18;37.40;;;;;;;2.89;73.72;101696.63;4908706;29;20489;-80
2023/01/31 04:43:06;;;;;;;58.83;35.95;;;;;;;3.09;73.92;101720.31;4915152;29;20094;-79
2023/01/31 04:45:33;;;;;;;62.15;35.05;;;;;;;2.91;73.55;101679.06;4893608;29;20048;-80
2023/01/31 04:47:59;;;;;;;54.80;33.28;;;;;;;3.24;73.81;101728.50;4893537;29;20043;-78
2023/01/31 04:50:31;;;;;;;45.58;28.05;;;;;;;2.98;73.99;101686.63;4890911;29;20047;-80
2023/01/31 04:53:03;;;;;;;50.00;28.25;;;;;;;3.11;74.06;101708.00;4893046;29;20048;-81
2023/01/31 04:55:49;;;;;;;43.10;26.60;;;;;;;3.04;73.79;101698.66;4891582;29;20507;-80
2023/01/31 04:58:22;;;;;;;48.00;26.33;;;;;;;3.16;74.25;101719.16;4895471;29;20758;-77
2023/01/31 05:00:56;;;;;;;41.50;24.95;;;;;;;3.23;74.20;101711.91;4906642;29;20429;-79
2023/01/31 05:03:30;;;;;;;36.00;21.85;;;;;;;3.40;73.99;101719.09;4915385;29;20405;-77
2023/01/31 05:06:01;;;;;;;35.80;22.73;;;;;;;3.43;73.33;101726.84;4910591;29;20416;-79
2023/01/31 05:08:28;;;;;;;38.55;23.75;;;;;;;3.36;73.83;101722.75;4894085;29;20266;-80
2023/01/31 05:11:07;;;;;;;35.67;22.30;;;;;;;3.42;73.57;101743.50;4913207;29;20106;-81
2023/01/31 05:13:37;;;;;;;36.75;20.45;;;;;;;3.48;73.97;101752.91;4914198;29;20055;-79
2023/01/31 05:16:11;;;;;;;33.00;20.80;;;;;;;3.18;73.56;101719.97;4905035;29;20055;-78
2023/01/31 05:18:52;;;;;;;32.17;21.67;;;;;;;3.37;73.70;101751.59;4876718;29;20065;-79
2023/01/31 05:21:53;;;;;;;32.08;19.73;;;;;;;3.37;73.38;101751.59;4889005;29;20048;-79
2023/01/31 05:24:30;;;;;;;34.58;20.85;;;;;;;3.16;73.93;101742.78;4895778;29;20051;-79
2023/01/31 05:27:06;;;;;;;33.50;20.30;;;;;;;3.12;73.90;101746.44;4913763;28;20052;-79
2023/01/31 05:29:35;;;;;;;29.75;18.92;;;;;;;3.24;73.86;101739.00;4891408;29;20414;-80
2023/01/31 05:32:05;;;;;;;29.20;18.00;;;;;;;3.48;74.29;101769.50;4919986;28;20055;-79
2023/01/31 05:34:33;;;;;;;30.00;19.15;;;;;;;3.38;73.34;101768.19;4900591;29;20047;-79
2023/01/31 05:37:03;;;;;;;29.65;19.17;;;;;;;3.41;74.24;101783.78;4915017;29;20126;-78
2023/01/31 05:39:34;;;;;;;;;;;;;;;3.31;73.56;101787.72;4918261;28;20059;-79
2023/01/31 05:42:07;;;;;;;31.83;20.58;;;;;;;3.32;73.73;101774.50;4927407;28;20143;-80
2023/01/31 05:44:33;;;;;;;36.28;21.73;;;;;;;3.21;73.40;101735.56;4904541;29;20859;-80
2023/01/31 05:47:01;;;;;;;44.72;23.70;;;;;;;3.63;72.68;101774.13;4897546;29;20056;-79
2023/01/31 05:49:33;;;;;;;36.53;23.25;;;;;;;2.91;72.40;101660.72;4889078;29;20306;-79
2023/01/31 05:52:00;;;;;;;37.28;24.25;;;;;;;2.22;72.29;101590.03;4889815;29;20051;-79
2023/01/31 05:54:33;;;;;;;33.60;21.52;;;;;;;3.40;73.15;101797.84;4883850;29;20051;-79
2023/01/31 05:57:00;;;;;;;35.63;22.52;;;;;;;3.05;73.40;101750.22;4894862;29;20216;-80
2023/01/31 05:59:31;;;;;;;36.60;22.98;;;;;;;3.25;73.19;101780.91;4901303;29;20091;-79
2023/01/31 06:02:07;;;;;;;40.78;24.35;;;;;;;3.26;72.98;101784.41;4868327;29;20056;-80
2023/01/31 06:04:37;;;;;;;39.53;23.40;;;;;;;3.09;73.75;101772.81;4895913;28;20075;-78
2023/01/31 06:07:04;;;;;;;33.17;24.88;;;;;;;2.85;73.48;101730.00;4925200;28;20477;-78
2023/01/31 06:09:31;;;;;;;34.42;22.58;;;;;;;1.96;73.38;101598.84;4917227;28;20118;-79
2023/01/31 06:12:18;;;;;;;33.30;22.05;;;;;;;3.11;73.98;101796.38;4908177;29;20418;-80
2023/01/31 06:14:45;;;;;;;43.45;22.23;;;;;;;2.87;73.74;101771.94;4909677;28;20042;-80
2023/01/31 06:17:12;;;;;;;33.00;22.05;;;;;;;3.26;73.56;101815.91;4923415;28;20322;-79
2023/01/31 06:19:46;;;;;;;38.60;24.45;;;;;;;3.05;73.93;101794.81;4920364;28;20050;-78
2023/01/31 06:22:21;;;;;;;37.50;24.42;;;;;;;3.24;73.88;101825.59;4883094;28;20104;-81
2023/01/31 06:24:56;;;;;;;38.58;24.63;;;;;;;3.26;73.06;101806.25;4933578;28;20945;-80
2023/01/31 06:27:32;;;;;;;41.83;25.07;;;;;;;3.40;73.28;101819.69;4907252;28;20055;-79
2023/01/31 06:30:04;;;;;;;39.33;23.65;;;;;;;3.62;73.00;101843.34;4912326;28;20061;-80
2023/01/31 06:32:31;;;;;;;;;;;;;;;3.51;73.34;101842.91;4948055;28;20059;-80
2023/01/31 06:35:03;;;;;;;32.17;21.30;;;;;;;3.37;73.17;101848.72;4932724;28;19933;-79
2023/01/31 06:37:33;;;;;;;36.80;21.63;;;;;;;3.26;74.13;101845.63;4916817;29;20114;-80
2023/01/31 06:40:00;;;;;;;32.80;22.13;;;;;;;2.61;73.87;101760.63;4907374;28;20064;-79
2023/01/31 06:42:26;;;;;;;41.43;23.63;;;;;;;2.89;74.39;101806.78;4944621;28;20051;-78
2023/01/31 06:45:01;;;;;;;47.03;23.80;;;;;;;3.16;73.75;101849.53;4932795;28;20078;-79
2023/01/31 06:47:27;;;;;;;34.38;23.15;;;;;;;2.94;74.11;101824.09;4936303;28;20052;-81
2023/01/31 06:49:59;;;;;;;44.65;23.35;;;;;;;2.78;74.54;101818.56;4902801;29;20051;-80
2023/01/31 06:52:51;;;;;;;35.13;22.70;;;;;;;3.13;74.46;101868.88;4932028;28;20262;-81
2023/01/31 06:55:21;;;;;;;32.72;20.10;;;;;;;3.27;75.05;101888.47;4936619;28;21003;-82
2023/01/31 06:57:51;;;;;;;35.40;21.77;;;;;;;3.06;74.33;101861.25;4921949;28;20051;-79
2023/01/31 07:00:28;;;;;;;31.77;20.60;;;;;;;3.05;74.57;101868.28;4924929;28;20245;-81
2023/01/31 07:03:23;;;;;;;37.95;21.15;;;;;;;3.20;74.26;101885.22;4928364;28;20293;-81
2023/01/31 07:05:51;;;;;;;34.87;20.60;;;;;;;3.26;74.56;101894.66;4921079;28;20310;-80
2023/01/31 07:08:18;;;;;;;31.60;20.77;;;;;;;3.16;75.09;101884.50;4904340;29;20055;-79
2023/01/31 07:10:48;;;;;;;37.80;21.50;;;;;;;3.37;75.00;101902.94;4907998;29;20047;-79
2023/01/31 07:13:18;;;;;;;43.28;20.85;;;;;;;3.21;74.73;101874.66;4906550;29;20047;-80
2023/01/31 07:15:45;;;;;;;35.75;20.20;;;;;;;3.28;75.15;101879.72;4903559;28;20062;-81
2023/01/31 07:18:18;;;;;;;30.87;20.03;;;;;;;3.35;74.49;101894.28;4923314;28;20061;-78
2023/01/31 07:20:46;;;;;;;30.70;21.30;;;;;;;3.09;74.34;101846.28;4930308;28;20133;-76
2023/01/31 07:23:21;;;;;;;40.17;20.52;;;;;;;3.20;74.45;101874.72;4922590;29;20231;-77
2023/01/31 07:25:48;;;;;;;39.95;22.30;;;;;;;3.54;74.71;101929.41;4800993;29;20078;-78
2023/01/31 07:28:19;;;;;;;39.15;22.35;;;;;;;3.63;74.23;101936.09;4815702;28;20113;-80
2023/01/31 07:30:50;;;;;;;40.95;22.58;;;;;;;3.36;74.66;101903.88;4847039;28;20051;-78
2023/01/31 07:33:23;;;;;;;39.60;21.35;;;;;;;3.42;74.42;101922.00;4842329;29;20865;-79
2023/01/31 07:36:05;;;;;;;43.85;22.63;;;;;;;3.69;74.94;101950.75;4832021;29;20082;-79
2023/01/31 07:38:49;;;;;;;42.15;22.67;;;;;;;3.66;74.63;101941.22;4828795;29;20223;-81
2023/01/31 07:42:08;;;;;;;39.43;21.77;;;;;;;3.82;74.04;101962.50;4891694;28;20082;-80
2023/01/31 07:44:18;;;;;;;37.70;21.90;;;;;;;3.89;73.98;101969.25;4882339;28;20042;-79
2023/01/31 07:46:46;;;;;;;40.47;19.90;;;;;;;3.95;73.35;101968.97;4876210;28;20560;-80
2023/01/31 07:49:13;;;;;;;32.78;20.80;;;;;;;4.03;73.51;101966.06;4857094;29;20298;-78
2023/01/31 07:51:53;;;;;;;36.47;22.58;;;;;;;4.00;72.72;101956.50;4856743;29;20536;-78
2023/01/31 07:54:24;;;;;;;33.25;21.10;;;;;;;4.12;72.40;101972.72;4832464;29;20058;-78
2023/01/31 07:57:00;;;;;;;32.70;20.38;;;;;;;4.10;71.74;101950.91;4828176;29;20086;-78
2023/01/31 07:59:39;;;;;;;32.42;19.13;;;;;;;4.14;70.57;101921.81;4894063;28;20113;-79
2023/01/31 08:05:20;;;;;;;31.88;19.35;;;;;;;4.76;68.81;101977.97;4842801;29;20367;-79
2023/01/31 08:08:09;;;;;;;34.47;20.55;;;;;;;4.79;68.34;101980.47;4843147;29;20451;-80
2023/01/31 08:10:39;;;;;;;31.90;19.60;;;;;;;4.82;68.27;101976.84;4848036;28;20051;-81
2023/01/31 08:13:13;;;;;;;31.77;21.05;;;;;;;4.78;67.82;101976.13;4856213;28;20427;-81
2023/01/31 08:15:46;;;;;;;34.80;21.95;;;;;;;4.90;68.04;101991.38;4862130;29;20597;-80
2023/01/31 08:18:26;;;;;;;36.53;21.77;;;;;;;4.90;67.28;101970.34;4862457;29;20598;-81
2023/01/31 08:21:17;;;;;;;37.38;21.98;;;;;;;5.02;67.25;101987.34;4864939;29;20245;-79
2023/01/31 08:23:50;;;;;;;33.33;21.20;;;;;;;5.11;66.87;101983.47;4875615;28;20414;-81
2023/01/31 08:26:33;;;;;;;41.00;22.83;;;;;;;5.02;67.17;101975.97;4838791;29;20055;-80
2023/01/31 08:29:07;;;;;;;34.08;22.75;;;;;;;4.79;67.08;101941.00;4875089;28;20133;-81
2023/01/31 08:31:43;;;;;;;42.70;23.80;;;;;;;5.01;66.97;101961.97;4889204;28;20679;-80
2023/01/31 08:34:22;;;;;;;37.50;23.08;;;;;;;5.11;66.66;101967.69;4869942;28;20312;-79
2023/01/31 08:37:08;;;;;;;38.47;23.85;;;;;;;5.40;66.45;101994.50;4847897;29;20058;-79
2023/01/31 08:39:47;;;;;;;42.88;25.45;;;;;;;5.37;66.21;101989.38;4857304;28;20476;-80
2023/01/31 08:42:19;;;;;;;39.20;24.83;;;;;;;5.35;66.09;101997.31;4842303;29;20524;-80
2023/01/31 08:45:09;;;;;;;40.10;25.05;;;;;;;5.43;65.94;101989.06;4870657;28;20250;-80
2023/01/31 08:47:43;;;;;;;39.47;25.88;;;;;;;5.51;65.12;101971.13;4853415;29;20138;-79
2023/01/31 08:50:18;;;;;;;40.50;25.65;;;;;;;5.72;64.49;101993.00;4836352;29;20047;-80
2023/01/31 08:53:03;;;;;;;42.92;25.05;;;;;;;5.74;65.06;101996.44;4817170;29;20433;-81
2023/01/31 08:55:37;;;;;;;43.13;25.70;;;;;;;4.74;64.51;101821.94;4860279;28;20346;-80
2023/01/31 08:58:09;;;;;;;43.50;26.27;;;;;;;5.86;64.21;101998.50;4843196;28;20267;-78
2023/01/31 09:01:08;;;;;;;40.20;26.42;;;;;;;5.93;63.67;102006.97;4858469;28;20486;-79
2023/01/31 09:03:46;;;;;;;51.63;26.13;;;;;;;6.10;63.82;102008.84;4854354;28;20537;-80
2023/01/31 09:06:22;;;;;;;39.60;25.80;;;;;;;6.11;63.24;102019.31;4815923;29;20257;-80
2023/01/31 09:08:53;;;;;;;43.15;25.83;;;;;;;6.05;63.15;101997.69;4838086;29;20117;-81
2023/01/31 09:11:27;;;;;;;47.60;27.50;;;;;;;6.01;63.32;101978.50;4828378;29;20314;-81
2023/01/31 09:14:01;;;;;;;40.87;25.53;;;;;;;6.15;62.86;101997.16;4846249;28;20047;-79
2023/01/31 09:16:38;;;;;;;48.92;27.30;;;;;;;6.15;63.05;101981.31;4835736;29;20127;-79
2023/01/31 09:19:18;;;;;;;56.25;27.65;;;;;;;6.44;62.91;102002.78;4835865;29;20139;-81
2023/01/31 09:21:58;;;;;;;45.40;25.85;;;;;;;6.37;61.71;101978.50;4840509;29;20056;-80
2023/01/31 09:24:45;;;;;;;46.53;26.63;;;;;;;6.48;62.25;102014.91;4824798;29;20258;-80
2023/01/31 09:27:33;;;;;;;55.22;28.15;;;;;;;6.58;62.58;102018.81;4839176;29;20067;-80
2023/01/31 09:30:10;;;;;;;55.50;30.17;;;;;;;6.66;62.23;102020.22;4829972;29;20132;-82
2023/01/31 09:32:45;;;;;;;50.05;28.52;;;;;;;6.51;62.01;101985.72;4805675;29;20297;-77
2023/01/31 09:35:15;;;;;;;51.63;28.02;;;;;;;6.77;61.78;101994.09;4814044;29;20124;-78
2023/01/31 09:37:42;;;;;;;48.40;29.25;;;;;;;6.81;62.08;102008.88;4826082;29;20891;-81
2023/01/31 09:40:22;;;;;;;49.53;29.42;;;;;;;5.82;61.62;101823.00;4819248;29;20688;-80
2023/01/31 09:43:00;;;;;;;47.25;28.58;;;;;;;7.12;60.97;102018.72;4812103;29;20415;-80
2023/01/31 09:45:32;;;;;;;46.38;29.60;;;;;;;7.17;61.97;102031.69;4832812;29;20201;-78
2023/01/31 09:48:06;;;;;;;49.05;30.63;;;;;;;7.02;61.17;101989.28;4850656;29;20419;-81
2023/01/31 09:50:55;;;;;;;52.47;32.80;;;;;;;7.39;61.54;102047.28;4832111;29;20430;-81
2023/01/31 09:53:41;;;;;;;56.35;34.22;;;;;;;7.23;61.06;101999.66;4828980;29;20381;-81
2023/01/31 09:56:32;;;;;;;59.05;33.13;;;;;;;7.34;60.37;101989.38;4849307;29;20054;-77
2023/01/31 09:59:31;;;;;;;65.95;34.55;;;;;;;7.85;60.45;102039.53;4843541;29;20087;-80
2023/01/31 10:02:14;;;;;;;60.92;33.90;;;;;;;8.03;60.59;102037.66;4794429;29;20229;-79
2023/01/31 10:05:13;;;;;;;55.90;33.85;;;;;;;7.89;59.75;101989.03;4839637;29;20058;-78
2023/01/31 10:08:19;;;;;;;58.20;35.95;;;;;;;8.39;59.41;102047.13;4823923;29;20047;-80
2023/01/31 10:10:59;;;;;;;63.63;37.33;;;;;;;8.53;59.01;102036.63;4825143;29;20379;-80
2023/01/31 10:13:40;;;;;;;66.25;37.13;;;;;;;8.70;58.46;102039.16;4870938;28;20489;-77
2023/01/31 10:16:37;;;;;;;63.90;36.97;;;;;;;8.74;58.11;102027.44;4832022;29;20217;-78
2023/01/31 10:22:48;;;;;;;63.35;36.67;;;;;;;8.64;58.23;101973.34;4859400;28;20452;-80
2023/01/31 10:25:49;;;;;;;62.20;37.60;;;;;;;8.69;57.15;101955.38;4856643;28;20078;-81
2023/01/31 10:28:32;;;;;;;67.65;36.58;;;;;;;9.05;57.33;102007.06;4851495;28;20595;-79
2023/01/31 10:31:12;;;;;;;60.20;37.08;;;;;;;8.93;57.49;101976.03;4845910;28;20082;-79
2023/01/31 10:34:16;;;;;;;71.65;37.08;;;;;;;9.09;57.59;102002.47;4844257;28;20337;-80
2023/01/31 10:36:56;;;;;;;62.60;36.25;;;;;;;9.04;57.49;101978.88;4837539;28;20067;-78
2023/01/31 10:40:15;;;;;;;61.30;33.85;;;;;;;8.87;57.67;101934.03;4793933;29;20047;-80
2023/01/31 10:42:53;;;;;;;60.53;34.58;;;;;;;9.30;56.60;101989.72;4807175;28;20587;-82
2023/01/31 10:45:33;;;;;;;58.65;33.97;;;;;;;9.08;57.86;101964.53;4851090;28;20198;-81
2023/01/31 10:48:25;;;;;;;60.90;33.97;;;;;;;9.12;57.87;101959.88;4851714;28;20275;-79
2023/01/31 10:51:11;;;;;;;57.60;34.55;;;;;;;9.41;56.76;101956.28;4840143;29;20744;-79
2023/01/31 10:54:16;;;;;;;56.53;34.30;;;;;;;9.35;56.61;101918.72;4827299;29;20534;-80
2023/01/31 10:56:47;;;;;;;60.45;34.63;;;;;;;9.78;56.62;101966.34;4817298;29;20397;-81
2023/01/31 10:59:35;;;;;;;60.40;35.15;;;;;;;10.09;55.67;101977.66;4863621;28;20073;-80
2023/01/31 11:02:03;;;;;;;61.83;35.35;;;;;;;10.29;56.06;101974.56;4879975;28;20102;-79
2023/01/31 11:04:42;;;;;;;61.33;35.80;;;;;;;10.45;54.77;101975.25;4865655;29;20296;-78
2023/01/31 11:07:11;;;;;;;60.35;36.58;;;;;;;10.53;55.22;101950.00;4859186;28;20065;-79
2023/01/31 11:09:54;;;;;;;63.40;35.22;;;;;;;10.83;54.15;101963.88;4873095;28;20684;-78
2023/01/31 11:12:43;;;;;;;64.47;37.42;;;;;;;11.01;54.47;101967.06;4855885;29;20379;-80
2023/01/31 11:15:17;;;;;;;63.97;34.40;;;;;;;11.11;52.84;101959.28;4830373;29;20453;-79
2023/01/31 11:18:00;;;;;;;66.15;36.70;;;;;;;11.20;51.89;101961.31;4868814;29;20097;-82
2023/01/31 11:20:45;;;;;;;63.65;36.10;;;;;;;11.19;52.17;101933.06;4838099;29;20424;-82
2023/01/31 11:23:20;;;;;;;65.57;35.58;;;;;;;11.43;52.58;101961.50;4863100;28;20059;-81
2023/01/31 11:25:50;;;;;;;60.55;34.28;;;;;;;11.49;51.62;101951.28;4856303;29;20391;-82
2023/01/31 11:28:39;;;;;;;57.55;33.78;;;;;;;11.47;51.74;101952.34;4830695;29;20643;-79
2023/01/31 11:31:39;;;;;;;58.60;35.88;;;;;;;11.21;51.81;101920.47;4853874;29;20055;-81
2023/01/31 11:34:47;;;;;;;56.17;33.42;;;;;;;11.05;52.50;101943.78;4865688;29;20754;-79
2023/01/31 11:37:20;;;;;;;60.92;35.25;;;;;;;10.62;52.76;101869.72;4842170;28;20051;-82
2023/01/31 11:40:26;;;;;;;62.50;34.85;;;;;;;10.90;52.92;101941.25;4865023;28;20358;-80
2023/01/31 11:43:00;;;;;;;63.22;37.65;;;;;;;10.56;53.13;101894.03;4831694;28;20378;-82
2023/01/31 11:45:48;;;;;;;59.53;34.28;;;;;;;10.73;53.07;101925.63;4861927;28;20893;-82
2023/01/31 11:48:32;;;;;;;64.10;34.60;;;;;;;10.73;53.58;101922.09;4827904;29;20220;-83
2023/01/31 11:51:01;;;;;;;67.13;35.40;;;;;;;10.36;52.91;101888.25;4858966;28;20055;-82
2023/01/31 11:53:39;;;;;;;64.43;36.40;;;;;;;10.68;53.55;101925.94;4838935;29;20901;-81
2023/01/31 11:56:22;;;;;;;69.43;36.80;;;;;;;10.56;53.61;101917.91;4875685;28;20146;-81
2023/01/31 11:59:07;;;;;;;65.93;35.80;;;;;;;10.20;53.92;101879.63;4850085;28;20410;-79
2023/01/31 12:01:47;;;;;;;67.55;37.30;;;;;;;9.32;54.29;101733.38;4849217;28;20450;-82
2023/01/31 12:04:47;;;;;;;69.40;39.88;;;;;;;10.58;53.66;101905.41;4821147;29;20339;-81
2023/01/31 12:07:34;;;;;;;66.32;36.58;;;;;;;10.54;53.79;101899.47;4834835;28;20753;-81
2023/01/31 12:10:50;;;;;;;67.13;37.60;;;;;;;10.24;53.92;101870.47;4854622;28;20233;-81
2023/01/31 12:13:24;;;;;;;66.85;36.72;;;;;;;10.40;54.55;101895.06;4839457;29;20047;-81
2023/01/31 12:16:06;;;;;;;64.35;33.67;;;;;;;10.50;53.96;101897.13;4812717;29;20486;-82
2023/01/31 12:18:48;;;;;;;62.58;35.47;;;;;;;10.04;53.80;101826.72;4830243;29;20769;-82
2023/01/31 12:21:24;;;;;;;62.55;35.17;;;;;;;10.35;54.49;101899.84;4817861;29;20083;-82